Terminal Aerodrome Forecast
Issued by NWS

Current Version | Previous Version | Graphics & Text | Print | Product List | Glossary On
Versions: 1 2 3 4 5 6 7 8 9 10 11 12 13 14 15 16 17 18 19 20 21
000
FTUS41 KPBZ 190349 AAA
TAFHLG
TAF AMD
KHLG 190349Z 1904/1924 09003KT P6SM SCT100
     FM190500 00000KT 5SM BR SCT150
     FM190800 00000KT 1/4SM FG VV002
     FM191400 00000KT P6SM SCT150=

USA.gov is the U.S. government's official web portal to all federal, state and local government web resources and services.